Branchburg, New Jersey
Current Conditions -  °F | °C
As of 4:53 AM on Sunday 23 Nov 2014 (Local Time) from KSMQ Reporting Station
Overcast Overcast  
Wind Chill: 36°   Ceiling: 12000
Heat Index: 36°   Visibility: 10mi
Dew Point: 25°   Wind: 3mph
Humidity: 64%   Direction: 150°SSE
Pressure: 30.18"   Gusts: NA
Location:  40.5554°N, 74.6608°W
Report Text: KSMQ 230953Z AUTO 15003KT 10SM OVC120 02/M04 A3018 RMK AO2 SLP221 T00221039
Loading
Personal Weather Stations






























Interactive Weather Map New forecast layout! Learn more

10-Day Weather Forecast

Advertisements
Track Severe Weather on mobile